sensor_id;sensor_type;location;lat;lon;timestamp;temperature;humidity
5870;DHT22;2961;47.702;9.410;2022-07-10T00:00:58;16.40;99.90
5870;DHT22;2961;47.702;9.410;2022-07-10T00:03:25;16.40;99.90
5870;DHT22;2961;47.702;9.410;2022-07-10T00:05:52;16.40;99.90
5870;DHT22;2961;47.702;9.410;2022-07-10T00:08:19;16.40;99.90
5870;DHT22;2961;47.702;9.410;2022-07-10T00:10:45;16.40;99.90
5870;DHT22;2961;47.702;9.410;2022-07-10T00:13:14;16.40;99.90
5870;DHT22;2961;47.702;9.410;2022-07-10T00:15:40;16.40;99.90
5870;DHT22;2961;47.702;9.410;2022-07-10T00:18:07;16.40;99.90
5870;DHT22;2961;47.702;9.410;2022-07-10T00:20:35;16.50;99.90
5870;DHT22;2961;47.702;9.410;2022-07-10T00:23:02;16.40;99.90
5870;DHT22;2961;47.702;9.410;2022-07-10T00:25:29;16.50;99.90
5870;DHT22;2961;47.702;9.410;2022-07-10T00:27:56;16.60;99.90
5870;DHT22;2961;47.702;9.410;2022-07-10T00:30:25;16.60;99.90
5870;DHT22;2961;47.702;9.410;2022-07-10T00:32:52;16.70;99.90
5870;DHT22;2961;47.702;9.410;2022-07-10T00:35:19;16.80;99.90
5870;DHT22;2961;47.702;9.410;2022-07-10T00:37:46;16.80;99.90
5870;DHT22;2961;47.702;9.410;2022-07-10T00:40:13;16.80;99.90
5870;DHT22;2961;47.702;9.410;2022-07-10T00:42:39;16.80;99.90
5870;DHT22;2961;47.702;9.410;2022-07-10T00:45:07;16.90;99.90
5870;DHT22;2961;47.702;9.410;2022-07-10T00:47:36;16.90;99.90
5870;DHT22;2961;47.702;9.410;2022-07-10T00:50:03;17.10;99.90
5870;DHT22;2961;47.702;9.410;2022-07-10T00:52:30;17.20;99.90
5870;DHT22;2961;47.702;9.410;2022-07-10T00:54:59;17.20;99.90
5870;DHT22;2961;47.702;9.410;2022-07-10T00:57:26;17.10;99.90
5870;DHT22;2961;47.702;9.410;2022-07-10T00:59:53;17.00;99.90
5870;DHT22;2961;47.702;9.410;2022-07-10T01:02:20;17.00;99.90
5870;DHT22;2961;47.702;9.410;2022-07-10T01:04:48;17.00;99.90
5870;DHT22;2961;47.702;9.410;2022-07-10T01:07:15;16.80;99.90
5870;DHT22;2961;47.702;9.410;2022-07-10T01:09:42;16.70;99.90
5870;DHT22;2961;47.702;9.410;2022-07-10T01:12:11;16.70;99.90
5870;DHT22;2961;47.702;9.410;2022-07-10T01:14:39;16.90;99.90
5870;DHT22;2961;47.702;9.410;2022-07-10T01:17:06;17.10;99.90
5870;DHT22;2961;47.702;9.410;2022-07-10T01:19:34;17.20;99.90
5870;DHT22;2961;47.702;9.410;2022-07-10T01:22:02;17.30;99.90
5870;DHT22;2961;47.702;9.410;2022-07-10T01:24:29;17.30;99.90
5870;DHT22;2961;47.702;9.410;2022-07-10T01:26:56;17.50;99.90
5870;DHT22;2961;47.702;9.410;2022-07-10T01:29:23;17.50;99.90
5870;DHT22;2961;47.702;9.410;2022-07-10T01:31:50;17.60;99.90
5870;DHT22;2961;47.702;9.410;2022-07-10T01:34:17;17.60;99.90
5870;DHT22;2961;47.702;9.410;2022-07-10T01:36:44;17.60;99.90
5870;DHT22;2961;47.702;9.410;2022-07-10T01:39:12;17.60;99.90
5870;DHT22;2961;47.702;9.410;2022-07-10T01:41:39;17.60;99.90
5870;DHT22;2961;47.702;9.410;2022-07-10T01:44:06;17.60;99.90
5870;DHT22;2961;47.702;9.410;2022-07-10T01:46:33;17.60;99.90
5870;DHT22;2961;47.702;9.410;2022-07-10T01:49:00;17.60;99.90
5870;DHT22;2961;47.702;9.410;2022-07-10T01:51:26;17.60;99.90
5870;DHT22;2961;47.702;9.410;2022-07-10T01:53:53;17.60;99.90
5870;DHT22;2961;47.702;9.410;2022-07-10T01:56:22;17.50;99.90
5870;DHT22;2961;47.702;9.410;2022-07-10T01:58:49;17.50;99.90
5870;DHT22;2961;47.702;9.410;2022-07-10T02:01:15;17.40;99.90
5870;DHT22;2961;47.702;9.410;2022-07-10T02:03:42;17.50;99.90
5870;DHT22;2961;47.702;9.410;2022-07-10T02:06:26;17.50;99.90
5870;DHT22;2961;47.702;9.410;2022-07-10T02:08:53;17.50;99.90
5870;DHT22;2961;47.702;9.410;2022-07-10T02:11:21;17.50;99.90
5870;DHT22;2961;47.702;9.410;2022-07-10T02:13:48;17.40;99.90
5870;DHT22;2961;47.702;9.410;2022-07-10T02:16:15;17.30;99.90
5870;DHT22;2961;47.702;9.410;2022-07-10T02:18:42;17.20;99.90
5870;DHT22;2961;47.702;9.410;2022-07-10T02:21:08;17.20;99.90
5870;DHT22;2961;47.702;9.410;2022-07-10T02:23:36;17.10;99.90
5870;DHT22;2961;47.702;9.410;2022-07-10T02:26:04;17.00;99.90
5870;DHT22;2961;47.702;9.410;2022-07-10T02:28:33;16.90;99.90
5870;DHT22;2961;47.702;9.410;2022-07-10T02:30:59;16.90;99.90
5870;DHT22;2961;47.702;9.410;2022-07-10T02:33:26;16.90;99.90
5870;DHT22;2961;47.702;9.410;2022-07-10T02:35:53;16.90;99.90
5870;DHT22;2961;47.702;9.410;2022-07-10T02:38:20;16.80;99.90
5870;DHT22;2961;47.702;9.410;2022-07-10T02:40:47;16.70;99.90
5870;DHT22;2961;47.702;9.410;2022-07-10T02:43:14;16.60;99.90
5870;DHT22;2961;47.702;9.410;2022-07-10T02:45:42;16.50;99.90
5870;DHT22;2961;47.702;9.410;2022-07-10T02:48:09;16.50;99.90
5870;DHT22;2961;47.702;9.410;2022-07-10T02:50:36;16.60;99.90
5870;DHT22;2961;47.702;9.410;2022-07-10T02:53:03;16.60;99.90
5870;DHT22;2961;47.702;9.410;2022-07-10T02:55:29;16.70;99.90
5870;DHT22;2961;47.702;9.410;2022-07-10T02:57:57;16.80;99.90
5870;DHT22;2961;47.702;9.410;2022-07-10T03:00:25;16.90;99.90
5870;DHT22;2961;47.702;9.410;2022-07-10T03:02:53;16.90;99.90
5870;DHT22;2961;47.702;9.410;2022-07-10T03:05:20;16.90;99.90
5870;DHT22;2961;47.702;9.410;2022-07-10T03:07:47;16.90;99.90
5870;DHT22;2961;47.702;9.410;2022-07-10T03:10:14;16.80;99.90
5870;DHT22;2961;47.702;9.410;2022-07-10T03:12:41;16.80;99.90
5870;DHT22;2961;47.702;9.410;2022-07-10T03:15:09;16.70;99.90
5870;DHT22;2961;47.702;9.410;2022-07-10T03:17:36;16.70;99.90
5870;DHT22;2961;47.702;9.410;2022-07-10T03:20:05;16.80;99.90
5870;DHT22;2961;47.702;9.410;2022-07-10T03:22:32;16.80;99.90
5870;DHT22;2961;47.702;9.410;2022-07-10T03:24:59;16.80;99.90
5870;DHT22;2961;47.702;9.410;2022-07-10T03:27:26;16.90;99.90
5870;DHT22;2961;47.702;9.410;2022-07-10T03:29:53;16.90;99.90
5870;DHT22;2961;47.702;9.410;2022-07-10T03:32:20;17.00;99.90
5870;DHT22;2961;47.702;9.410;2022-07-10T03:34:47;17.00;99.90
5870;DHT22;2961;47.702;9.410;2022-07-10T03:37:15;16.90;99.90
5870;DHT22;2961;47.702;9.410;2022-07-10T03:39:42;16.90;99.90
5870;DHT22;2961;47.702;9.410;2022-07-10T03:42:08;16.80;99.90
5870;DHT22;2961;47.702;9.410;2022-07-10T03:44:35;16.70;99.90
5870;DHT22;2961;47.702;9.410;2022-07-10T03:47:03;16.70;99.90
5870;DHT22;2961;47.702;9.410;2022-07-10T03:49:29;16.70;99.90
5870;DHT22;2961;47.702;9.410;2022-07-10T03:51:59;16.80;99.90
5870;DHT22;2961;47.702;9.410;2022-07-10T03:54:28;16.80;99.90
5870;DHT22;2961;47.702;9.410;2022-07-10T03:56:55;16.80;99.90
5870;DHT22;2961;47.702;9.410;2022-07-10T03:59:39;16.90;99.90
5870;DHT22;2961;47.702;9.410;2022-07-10T04:02:06;16.80;99.90
5870;DHT22;2961;47.702;9.410;2022-07-10T04:04:33;16.70;99.90
5870;DHT22;2961;47.702;9.410;2022-07-10T04:07:00;16.80;99.90
5870;DHT22;2961;47.702;9.410;2022-07-10T04:09:28;16.70;99.90
5870;DHT22;2961;47.702;9.410;2022-07-10T04:11:55;16.70;99.90
5870;DHT22;2961;47.702;9.410;2022-07-10T04:14:22;16.70;99.90
5870;DHT22;2961;47.702;9.410;2022-07-10T04:16:49;16.60;99.90
5870;DHT22;2961;47.702;9.410;2022-07-10T04:19:15;16.60;99.90
5870;DHT22;2961;47.702;9.410;2022-07-10T04:21:42;16.70;99.90
5870;DHT22;2961;47.702;9.410;2022-07-10T04:24:09;16.70;99.90
5870;DHT22;2961;47.702;9.410;2022-07-10T04:26:37;16.60;99.90
5870;DHT22;2961;47.702;9.410;2022-07-10T04:29:04;16.60;99.90
5870;DHT22;2961;47.702;9.410;2022-07-10T04:31:31;16.50;99.90
5870;DHT22;2961;47.702;9.410;2022-07-10T04:33:57;16.60;99.90
5870;DHT22;2961;47.702;9.410;2022-07-10T04:36:24;16.70;99.90
5870;DHT22;2961;47.702;9.410;2022-07-10T04:38:51;16.80;99.90
5870;DHT22;2961;47.702;9.410;2022-07-10T04:41:18;16.90;99.90
5870;DHT22;2961;47.702;9.410;2022-07-10T04:43:46;16.80;99.90
5870;DHT22;2961;47.702;9.410;2022-07-10T04:46:13;16.90;99.90
5870;DHT22;2961;47.702;9.410;2022-07-10T04:48:40;16.90;99.90
5870;DHT22;2961;47.702;9.410;2022-07-10T04:51:06;16.80;99.90
5870;DHT22;2961;47.702;9.410;2022-07-10T04:53:34;16.80;99.90
5870;DHT22;2961;47.702;9.410;2022-07-10T04:56:00;16.80;99.90
5870;DHT22;2961;47.702;9.410;2022-07-10T04:58:27;16.90;99.90
5870;DHT22;2961;47.702;9.410;2022-07-10T05:00:56;17.00;99.90
5870;DHT22;2961;47.702;9.410;2022-07-10T05:03:22;17.00;99.90
5870;DHT22;2961;47.702;9.410;2022-07-10T05:05:49;17.10;99.90
5870;DHT22;2961;47.702;9.410;2022-07-10T05:08:16;17.10;99.90
5870;DHT22;2961;47.702;9.410;2022-07-10T05:10:43;17.10;99.90
5870;DHT22;2961;47.702;9.410;2022-07-10T05:13:10;17.30;99.90
5870;DHT22;2961;47.702;9.410;2022-07-10T05:15:37;17.40;99.90
5870;DHT22;2961;47.702;9.410;2022-07-10T05:18:05;17.50;99.90
5870;DHT22;2961;47.702;9.410;2022-07-10T05:20:32;17.70;99.90
5870;DHT22;2961;47.702;9.410;2022-07-10T05:23:00;17.80;99.90
5870;DHT22;2961;47.702;9.410;2022-07-10T05:25:27;18.00;99.90
5870;DHT22;2961;47.702;9.410;2022-07-10T05:27:56;18.20;99.90
5870;DHT22;2961;47.702;9.410;2022-07-10T05:30:22;18.40;99.90
5870;DHT22;2961;47.702;9.410;2022-07-10T05:32:49;18.90;99.90
5870;DHT22;2961;47.702;9.410;2022-07-10T05:35:17;19.10;99.90
5870;DHT22;2961;47.702;9.410;2022-07-10T05:37:44;19.10;99.90
5870;DHT22;2961;47.702;9.410;2022-07-10T05:40:11;19.10;99.90
5870;DHT22;2961;47.702;9.410;2022-07-10T05:42:38;19.10;99.90
5870;DHT22;2961;47.702;9.410;2022-07-10T05:45:06;19.00;99.90
5870;DHT22;2961;47.702;9.410;2022-07-10T05:47:33;19.00;99.90
5870;DHT22;2961;47.702;9.410;2022-07-10T05:50:00;19.00;99.90
5870;DHT22;2961;47.702;9.410;2022-07-10T05:52:28;19.00;99.90
5870;DHT22;2961;47.702;9.410;2022-07-10T05:54:55;18.90;99.90
5870;DHT22;2961;47.702;9.410;2022-07-10T05:57:23;18.80;99.90
5870;DHT22;2961;47.702;9.410;2022-07-10T05:59:50;18.60;99.90
5870;DHT22;2961;47.702;9.410;2022-07-10T06:02:17;18.50;99.90
5870;DHT22;2961;47.702;9.410;2022-07-10T06:04:43;18.50;99.90
5870;DHT22;2961;47.702;9.410;2022-07-10T06:07:10;18.50;99.90
5870;DHT22;2961;47.702;9.410;2022-07-10T06:09:38;18.60;99.90
5870;DHT22;2961;47.702;9.410;2022-07-10T06:12:06;18.70;99.90
5870;DHT22;2961;47.702;9.410;2022-07-10T06:14:32;19.30;99.90
5870;DHT22;2961;47.702;9.410;2022-07-10T06:16:59;20.00;99.90
5870;DHT22;2961;47.702;9.410;2022-07-10T06:19:27;21.20;99.90
5870;DHT22;2961;47.702;9.410;2022-07-10T06:21:54;22.30;99.90
5870;DHT22;2961;47.702;9.410;2022-07-10T06:24:34;23.10;99.90
5870;DHT22;2961;47.702;9.410;2022-07-10T06:27:03;23.70;99.90
5870;DHT22;2961;47.702;9.410;2022-07-10T06:29:30;24.40;99.90
5870;DHT22;2961;47.702;9.410;2022-07-10T06:31:57;25.00;99.90
5870;DHT22;2961;47.702;9.410;2022-07-10T06:34:24;24.90;98.90
5870;DHT22;2961;47.702;9.410;2022-07-10T06:36:51;24.20;99.40
5870;DHT22;2961;47.702;9.410;2022-07-10T06:39:18;23.60;99.80
5870;DHT22;2961;47.702;9.410;2022-07-10T06:41:45;24.00;99.60
5870;DHT22;2961;47.702;9.410;2022-07-10T06:44:13;25.00;98.90
5870;DHT22;2961;47.702;9.410;2022-07-10T06:46:40;25.80;98.50
5870;DHT22;2961;47.702;9.410;2022-07-10T06:49:07;26.60;97.00
5870;DHT22;2961;47.702;9.410;2022-07-10T06:51:34;26.70;94.20
5870;DHT22;2961;47.702;9.410;2022-07-10T06:54:01;25.80;94.90
5870;DHT22;2961;47.702;9.410;2022-07-10T06:56:28;24.40;96.80
5870;DHT22;2961;47.702;9.410;2022-07-10T06:58:55;23.40;99.90
5870;DHT22;2961;47.702;9.410;2022-07-10T07:01:23;22.70;99.90
5870;DHT22;2961;47.702;9.410;2022-07-10T07:03:50;22.30;99.90
5870;DHT22;2961;47.702;9.410;2022-07-10T07:06:17;21.90;99.90
5870;DHT22;2961;47.702;9.410;2022-07-10T07:08:44;21.90;99.90
5870;DHT22;2961;47.702;9.410;2022-07-10T07:11:11;21.70;99.90
5870;DHT22;2961;47.702;9.410;2022-07-10T07:13:38;21.90;99.90
5870;DHT22;2961;47.702;9.410;2022-07-10T07:16:05;22.10;99.90
5870;DHT22;2961;47.702;9.410;2022-07-10T07:18:36;22.20;99.90
5870;DHT22;2961;47.702;9.410;2022-07-10T07:21:12;22.10;99.90
5870;DHT22;2961;47.702;9.410;2022-07-10T07:23:57;22.10;99.90
5870;DHT22;2961;47.702;9.410;2022-07-10T07:26:24;21.90;99.90
5870;DHT22;2961;47.702;9.410;2022-07-10T07:28:51;21.70;99.90
5870;DHT22;2961;47.702;9.410;2022-07-10T07:31:17;21.30;99.90
5870;DHT22;2961;47.702;9.410;2022-07-10T07:33:46;21.10;99.90
5870;DHT22;2961;47.702;9.410;2022-07-10T07:36:13;21.00;99.90
5870;DHT22;2961;47.702;9.410;2022-07-10T07:38:42;20.90;99.90
5870;DHT22;2961;47.702;9.410;2022-07-10T07:41:09;20.90;99.90
5870;DHT22;2961;47.702;9.410;2022-07-10T07:43:36;20.90;99.90
5870;DHT22;2961;47.702;9.410;2022-07-10T07:46:03;20.90;99.90
5870;DHT22;2961;47.702;9.410;2022-07-10T07:48:30;20.80;99.90
5870;DHT22;2961;47.702;9.410;2022-07-10T07:50:58;20.80;99.90
5870;DHT22;2961;47.702;9.410;2022-07-10T07:53:25;20.70;99.90
5870;DHT22;2961;47.702;9.410;2022-07-10T07:55:52;20.80;99.90
5870;DHT22;2961;47.702;9.410;2022-07-10T07:58:19;20.90;99.90
5870;DHT22;2961;47.702;9.410;2022-07-10T08:00:46;21.10;99.90
5870;DHT22;2961;47.702;9.410;2022-07-10T08:03:13;21.30;99.90
5870;DHT22;2961;47.702;9.410;2022-07-10T08:05:41;21.40;99.90
5870;DHT22;2961;47.702;9.410;2022-07-10T08:08:09;21.60;99.90
5870;DHT22;2961;47.702;9.410;2022-07-10T08:10:36;21.50;99.90
5870;DHT22;2961;47.702;9.410;2022-07-10T08:13:03;21.60;99.90
5870;DHT22;2961;47.702;9.410;2022-07-10T08:15:30;21.60;99.90
5870;DHT22;2961;47.702;9.410;2022-07-10T08:17:58;21.50;99.90
5870;DHT22;2961;47.702;9.410;2022-07-10T08:20:26;21.50;99.90
5870;DHT22;2961;47.702;9.410;2022-07-10T08:22:53;21.50;99.90
5870;DHT22;2961;47.702;9.410;2022-07-10T08:25:22;21.60;99.90
5870;DHT22;2961;47.702;9.410;2022-07-10T08:27:49;21.70;99.90
5870;DHT22;2961;47.702;9.410;2022-07-10T08:30:16;22.00;99.90
5870;DHT22;2961;47.702;9.410;2022-07-10T08:32:43;22.20;99.90
5870;DHT22;2961;47.702;9.410;2022-07-10T08:35:10;23.10;99.90
5870;DHT22;2961;47.702;9.410;2022-07-10T08:37:39;24.30;99.90
5870;DHT22;2961;47.702;9.410;2022-07-10T08:40:08;25.00;99.90
5870;DHT22;2961;47.702;9.410;2022-07-10T08:42:37;25.80;98.80
5870;DHT22;2961;47.702;9.410;2022-07-10T08:45:04;26.20;97.40
5870;DHT22;2961;47.702;9.410;2022-07-10T08:47:34;26.20;96.60
5870;DHT22;2961;47.702;9.410;2022-07-10T08:50:01;26.10;97.80
5870;DHT22;2961;47.702;9.410;2022-07-10T08:52:33;25.90;96.60
5870;DHT22;2961;47.702;9.410;2022-07-10T08:55:00;25.60;97.40
5870;DHT22;2961;47.702;9.410;2022-07-10T08:57:28;24.90;97.30
5870;DHT22;2961;47.702;9.410;2022-07-10T08:59:58;24.50;97.70
5870;DHT22;2961;47.702;9.410;2022-07-10T09:02:25;24.00;98.50
5870;DHT22;2961;47.702;9.410;2022-07-10T09:04:52;23.40;98.50
5870;DHT22;2961;47.702;9.410;2022-07-10T09:07:19;23.00;99.70
5870;DHT22;2961;47.702;9.410;2022-07-10T09:09:54;22.80;99.90
5870;DHT22;2961;47.702;9.410;2022-07-10T09:12:22;22.60;99.90
5870;DHT22;2961;47.702;9.410;2022-07-10T09:14:50;22.50;99.90
5870;DHT22;2961;47.702;9.410;2022-07-10T09:17:19;22.40;99.90
5870;DHT22;2961;47.702;9.410;2022-07-10T09:19:46;22.50;99.90
5870;DHT22;2961;47.702;9.410;2022-07-10T09:22:13;23.10;99.90
5870;DHT22;2961;47.702;9.410;2022-07-10T09:24:42;23.70;99.90
5870;DHT22;2961;47.702;9.410;2022-07-10T09:27:12;24.20;99.20
5870;DHT22;2961;47.702;9.410;2022-07-10T09:29:47;24.20;99.30
5870;DHT22;2961;47.702;9.410;2022-07-10T09:32:16;24.20;98.10
5870;DHT22;2961;47.702;9.410;2022-07-10T09:34:47;24.00;99.10
5870;DHT22;2961;47.702;9.410;2022-07-10T09:37:19;24.10;99.90
5870;DHT22;2961;47.702;9.410;2022-07-10T09:39:54;24.50;98.40
5870;DHT22;2961;47.702;9.410;2022-07-10T09:42:28;24.40;98.70
5870;DHT22;2961;47.702;9.410;2022-07-10T09:45:15;24.80;98.60
5870;DHT22;2961;47.702;9.410;2022-07-10T09:47:43;25.40;97.40
5870;DHT22;2961;47.702;9.410;2022-07-10T09:50:23;26.10;94.70
5870;DHT22;2961;47.702;9.410;2022-07-10T09:52:51;26.70;94.10
5870;DHT22;2961;47.702;9.410;2022-07-10T09:55:20;27.00;92.20
5870;DHT22;2961;47.702;9.410;2022-07-10T09:57:53;28.00;93.80
5870;DHT22;2961;47.702;9.410;2022-07-10T10:00:23;28.50;95.10
5870;DHT22;2961;47.702;9.410;2022-07-10T10:02:56;28.50;94.70
5870;DHT22;2961;47.702;9.410;2022-07-10T10:05:37;28.50;94.20
5870;DHT22;2961;47.702;9.410;2022-07-10T10:08:11;28.90;93.50
5870;DHT22;2961;47.702;9.410;2022-07-10T10:10:44;29.10;92.80
5870;DHT22;2961;47.702;9.410;2022-07-10T10:13:15;29.10;92.50
5870;DHT22;2961;47.702;9.410;2022-07-10T10:15:44;29.10;92.40
5870;DHT22;2961;47.702;9.410;2022-07-10T10:18:13;29.20;92.60
5870;DHT22;2961;47.702;9.410;2022-07-10T10:20:45;29.40;92.10
5870;DHT22;2961;47.702;9.410;2022-07-10T10:23:13;29.10;91.50
5870;DHT22;2961;47.702;9.410;2022-07-10T10:25:40;28.20;91.90
5870;DHT22;2961;47.702;9.410;2022-07-10T10:28:09;27.90;92.50
5870;DHT22;2961;47.702;9.410;2022-07-10T10:30:38;27.30;93.30
5870;DHT22;2961;47.702;9.410;2022-07-10T10:36:09;25.70;96.20
5870;DHT22;2961;47.702;9.410;2022-07-10T10:38:59;25.50;95.90
5870;DHT22;2961;47.702;9.410;2022-07-10T10:41:27;25.50;97.00
5870;DHT22;2961;47.702;9.410;2022-07-10T10:47:04;25.60;95.70
5870;DHT22;2961;47.702;9.410;2022-07-10T10:49:54;25.30;96.40
5870;DHT22;2961;47.702;9.410;2022-07-10T10:52:26;25.20;98.00
5870;DHT22;2961;47.702;9.410;2022-07-10T10:55:16;25.10;97.40
5870;DHT22;2961;47.702;9.410;2022-07-10T10:57:46;24.70;97.30
5870;DHT22;2961;47.702;9.410;2022-07-10T11:00:31;24.80;97.30
5870;DHT22;2961;47.702;9.410;2022-07-10T11:03:20;24.70;97.30
5870;DHT22;2961;47.702;9.410;2022-07-10T11:05:48;24.90;98.80
5870;DHT22;2961;47.702;9.410;2022-07-10T11:08:39;25.10;98.50
5870;DHT22;2961;47.702;9.410;2022-07-10T11:11:36;25.00;97.60
5870;DHT22;2961;47.702;9.410;2022-07-10T11:14:03;24.80;98.90
5870;DHT22;2961;47.702;9.410;2022-07-10T11:16:31;25.00;97.50
5870;DHT22;2961;47.702;9.410;2022-07-10T11:19:00;25.20;97.90
5870;DHT22;2961;47.702;9.410;2022-07-10T11:21:28;25.70;98.00
5870;DHT22;2961;47.702;9.410;2022-07-10T11:24:04;25.50;96.40
5870;DHT22;2961;47.702;9.410;2022-07-10T11:26:55;25.50;96.80
5870;DHT22;2961;47.702;9.410;2022-07-10T11:29:25;25.50;97.70
5870;DHT22;2961;47.702;9.410;2022-07-10T11:31:53;25.20;97.40
5870;DHT22;2961;47.702;9.410;2022-07-10T11:34:20;25.00;97.70
5870;DHT22;2961;47.702;9.410;2022-07-10T11:36:48;24.80;98.10
5870;DHT22;2961;47.702;9.410;2022-07-10T11:39:16;24.70;97.00
5870;DHT22;2961;47.702;9.410;2022-07-10T11:41:44;24.50;97.10
5870;DHT22;2961;47.702;9.410;2022-07-10T11:44:14;24.70;98.60
5870;DHT22;2961;47.702;9.410;2022-07-10T11:46:41;25.00;98.00
5870;DHT22;2961;47.702;9.410;2022-07-10T11:49:10;25.00;96.30
5870;DHT22;2961;47.702;9.410;2022-07-10T11:51:41;25.20;96.60
5870;DHT22;2961;47.702;9.410;2022-07-10T11:54:09;25.40;97.60
5870;DHT22;2961;47.702;9.410;2022-07-10T11:56:40;25.40;96.70
5870;DHT22;2961;47.702;9.410;2022-07-10T11:59:09;25.50;97.60
5870;DHT22;2961;47.702;9.410;2022-07-10T12:01:41;25.60;96.40
5870;DHT22;2961;47.702;9.410;2022-07-10T12:04:09;25.40;96.80
5870;DHT22;2961;47.702;9.410;2022-07-10T12:06:38;25.30;97.00
5870;DHT22;2961;47.702;9.410;2022-07-10T12:09:16;25.10;96.70
5870;DHT22;2961;47.702;9.410;2022-07-10T12:11:57;24.80;96.70
5870;DHT22;2961;47.702;9.410;2022-07-10T12:14:26;24.50;97.40
5870;DHT22;2961;47.702;9.410;2022-07-10T12:16:54;24.50;97.40
5870;DHT22;2961;47.702;9.410;2022-07-10T12:19:23;24.70;97.50
5870;DHT22;2961;47.702;9.410;2022-07-10T12:21:51;25.10;97.40
5870;DHT22;2961;47.702;9.410;2022-07-10T12:24:20;25.30;96.90
5870;DHT22;2961;47.702;9.410;2022-07-10T12:26:48;25.50;95.80
5870;DHT22;2961;47.702;9.410;2022-07-10T12:29:20;25.60;96.00
5870;DHT22;2961;47.702;9.410;2022-07-10T12:31:48;25.70;96.80
5870;DHT22;2961;47.702;9.410;2022-07-10T12:34:16;25.60;96.00
5870;DHT22;2961;47.702;9.410;2022-07-10T12:36:47;25.60;96.00
5870;DHT22;2961;47.702;9.410;2022-07-10T12:39:16;25.50;96.10
5870;DHT22;2961;47.702;9.410;2022-07-10T12:41:55;25.40;95.80
5870;DHT22;2961;47.702;9.410;2022-07-10T12:44:39;25.40;96.20
5870;DHT22;2961;47.702;9.410;2022-07-10T12:47:08;25.50;95.80
5870;DHT22;2961;47.702;9.410;2022-07-10T12:49:50;25.60;95.20
5870;DHT22;2961;47.702;9.410;2022-07-10T12:52:25;25.80;95.70
5870;DHT22;2961;47.702;9.410;2022-07-10T12:55:09;26.00;94.90
5870;DHT22;2961;47.702;9.410;2022-07-10T12:57:51;25.90;95.10
5870;DHT22;2961;47.702;9.410;2022-07-10T13:00:19;25.80;93.70
5870;DHT22;2961;47.702;9.410;2022-07-10T13:02:47;25.80;92.30
5870;DHT22;2961;47.702;9.410;2022-07-10T13:05:25;25.70;95.10
5870;DHT22;2961;47.702;9.410;2022-07-10T13:07:53;25.40;95.10
5870;DHT22;2961;47.702;9.410;2022-07-10T13:10:32;25.40;94.60
5870;DHT22;2961;47.702;9.410;2022-07-10T13:13:00;25.60;95.20
5870;DHT22;2961;47.702;9.410;2022-07-10T13:15:27;25.90;95.50
5870;DHT22;2961;47.702;9.410;2022-07-10T13:17:55;25.60;93.10
5870;DHT22;2961;47.702;9.410;2022-07-10T13:20:22;25.80;93.40
5870;DHT22;2961;47.702;9.410;2022-07-10T13:22:48;26.00;93.80
5870;DHT22;2961;47.702;9.410;2022-07-10T13:25:15;26.10;92.90
5870;DHT22;2961;47.702;9.410;2022-07-10T13:27:42;26.20;93.80
5870;DHT22;2961;47.702;9.410;2022-07-10T13:30:11;26.00;93.90
5870;DHT22;2961;47.702;9.410;2022-07-10T13:32:38;25.80;93.20
5870;DHT22;2961;47.702;9.410;2022-07-10T13:35:05;25.80;93.80
5870;DHT22;2961;47.702;9.410;2022-07-10T13:37:32;25.70;93.20
5870;DHT22;2961;47.702;9.410;2022-07-10T13:39:59;25.60;93.70
5870;DHT22;2961;47.702;9.410;2022-07-10T13:42:26;25.50;95.20
5870;DHT22;2961;47.702;9.410;2022-07-10T13:44:52;25.40;95.50
5870;DHT22;2961;47.702;9.410;2022-07-10T13:47:22;25.10;95.00
5870;DHT22;2961;47.702;9.410;2022-07-10T13:49:49;25.00;94.20
5870;DHT22;2961;47.702;9.410;2022-07-10T13:52:15;24.90;94.60
5870;DHT22;2961;47.702;9.410;2022-07-10T13:54:42;24.80;95.30
5870;DHT22;2961;47.702;9.410;2022-07-10T13:57:09;24.80;95.10
5870;DHT22;2961;47.702;9.410;2022-07-10T13:59:36;24.90;96.10
5870;DHT22;2961;47.702;9.410;2022-07-10T14:02:03;24.90;95.20
5870;DHT22;2961;47.702;9.410;2022-07-10T14:04:31;25.10;95.50
5870;DHT22;2961;47.702;9.410;2022-07-10T14:06:58;25.30;93.90
5870;DHT22;2961;47.702;9.410;2022-07-10T14:09:25;25.50;94.00
5870;DHT22;2961;47.702;9.410;2022-07-10T14:11:53;25.80;93.60
5870;DHT22;2961;47.702;9.410;2022-07-10T14:14:20;25.80;93.20
5870;DHT22;2961;47.702;9.410;2022-07-10T14:16:48;25.70;93.40
5870;DHT22;2961;47.702;9.410;2022-07-10T14:19:15;25.40;95.00
5870;DHT22;2961;47.702;9.410;2022-07-10T14:21:43;25.40;94.40
5870;DHT22;2961;47.702;9.410;2022-07-10T14:24:10;25.40;93.90
5870;DHT22;2961;47.702;9.410;2022-07-10T14:26:37;25.20;94.40
5870;DHT22;2961;47.702;9.410;2022-07-10T14:29:04;25.20;94.60
5870;DHT22;2961;47.702;9.410;2022-07-10T14:31:31;25.20;94.60
5870;DHT22;2961;47.702;9.410;2022-07-10T14:33:58;25.20;95.00
5870;DHT22;2961;47.702;9.410;2022-07-10T14:36:25;25.20;94.50
5870;DHT22;2961;47.702;9.410;2022-07-10T14:38:54;25.10;94.50
5870;DHT22;2961;47.702;9.410;2022-07-10T14:41:21;25.10;94.80
5870;DHT22;2961;47.702;9.410;2022-07-10T14:43:48;24.80;94.40
5870;DHT22;2961;47.702;9.410;2022-07-10T14:46:15;24.70;93.40
5870;DHT22;2961;47.702;9.410;2022-07-10T14:48:42;24.60;93.90
5870;DHT22;2961;47.702;9.410;2022-07-10T14:51:09;24.50;93.70
5870;DHT22;2961;47.702;9.410;2022-07-10T14:53:36;24.50;94.60
5870;DHT22;2961;47.702;9.410;2022-07-10T14:56:06;24.50;95.70
5870;DHT22;2961;47.702;9.410;2022-07-10T14:58:33;24.40;95.80
5870;DHT22;2961;47.702;9.410;2022-07-10T15:01:00;24.50;96.30
5870;DHT22;2961;47.702;9.410;2022-07-10T15:03:28;24.50;96.30
5870;DHT22;2961;47.702;9.410;2022-07-10T15:05:55;24.70;95.10
5870;DHT22;2961;47.702;9.410;2022-07-10T15:08:23;24.60;95.50
5870;DHT22;2961;47.702;9.410;2022-07-10T15:10:50;24.50;91.90
5870;DHT22;2961;47.702;9.410;2022-07-10T15:13:19;24.50;93.50
5870;DHT22;2961;47.702;9.410;2022-07-10T15:15:45;24.30;91.60
5870;DHT22;2961;47.702;9.410;2022-07-10T15:18:14;24.30;92.30
5870;DHT22;2961;47.702;9.410;2022-07-10T15:20:41;24.20;92.60
5870;DHT22;2961;47.702;9.410;2022-07-10T15:23:08;24.20;92.70
5870;DHT22;2961;47.702;9.410;2022-07-10T15:25:35;24.20;91.30
5870;DHT22;2961;47.702;9.410;2022-07-10T15:28:04;24.10;91.60
5870;DHT22;2961;47.702;9.410;2022-07-10T15:30:34;24.00;92.50
5870;DHT22;2961;47.702;9.410;2022-07-10T15:33:01;23.90;92.50
5870;DHT22;2961;47.702;9.410;2022-07-10T15:35:28;23.80;91.90
5870;DHT22;2961;47.702;9.410;2022-07-10T15:37:55;23.60;93.20
5870;DHT22;2961;47.702;9.410;2022-07-10T15:40:22;23.50;93.50
5870;DHT22;2961;47.702;9.410;2022-07-10T15:42:49;23.40;93.00
5870;DHT22;2961;47.702;9.410;2022-07-10T15:45:15;23.50;93.90
5870;DHT22;2961;47.702;9.410;2022-07-10T15:47:44;23.50;93.00
5870;DHT22;2961;47.702;9.410;2022-07-10T15:50:10;23.50;93.20
5870;DHT22;2961;47.702;9.410;2022-07-10T15:52:37;23.40;92.90
5870;DHT22;2961;47.702;9.410;2022-07-10T15:55:04;23.40;93.30
5870;DHT22;2961;47.702;9.410;2022-07-10T15:57:31;23.30;93.30
5870;DHT22;2961;47.702;9.410;2022-07-10T16:00:01;23.20;93.10
5870;DHT22;2961;47.702;9.410;2022-07-10T16:02:28;23.10;93.60
5870;DHT22;2961;47.702;9.410;2022-07-10T16:04:56;23.00;93.60
5870;DHT22;2961;47.702;9.410;2022-07-10T16:07:23;22.90;93.70
5870;DHT22;2961;47.702;9.410;2022-07-10T16:09:50;22.80;93.80
5870;DHT22;2961;47.702;9.410;2022-07-10T16:12:17;22.80;94.20
5870;DHT22;2961;47.702;9.410;2022-07-10T16:14:43;22.60;94.40
5870;DHT22;2961;47.702;9.410;2022-07-10T16:17:10;22.60;94.40